Abraham Baldwin College, Georgia
Current Conditions -  °F | °C
As of 4:30 PM on Friday 31 Oct 2014 (Local Time) from KTMA Reporting Station
Clear Clear  
Wind Chill: 71°   Ceiling: Unl
Heat Index: 71°   Visibility: 10mi
Dew Point: 38°   Wind: 13mph
Humidity: 30%   Direction: 310°NW
Pressure: 29.83"   Gusts: NA
Location:  31.4406°N, 83.464°W
Report Text: KTMA 312030Z AUTO 31011KT 10SM CLR 21/03 A2983 RMK AO2 T02140032
Loading
Personal Weather Stations






























Interactive Weather Map
Tropical Storm Tracking
New forecast layout! Learn more

10-Day Weather Forecast

Advertisements
Track Severe Weather on mobile